sensor_id;sensor_type;location;lat;lon;timestamp;P1;durP1;ratioP1;P2;durP2;ratioP2
43809;SDS011;29440;48.208;11.162;2024-03-25T00:00:35;3.58;;;0.88;;
43809;SDS011;29440;48.208;11.162;2024-03-25T00:03:01;1.85;;;0.82;;
43809;SDS011;29440;48.208;11.162;2024-03-25T00:05:27;1.63;;;0.80;;
43809;SDS011;29440;48.208;11.162;2024-03-25T00:07:54;3.15;;;0.65;;
43809;SDS011;29440;48.208;11.162;2024-03-25T00:10:20;1.70;;;0.60;;
43809;SDS011;29440;48.208;11.162;2024-03-25T00:12:45;3.33;;;0.65;;
43809;SDS011;29440;48.208;11.162;2024-03-25T00:15:12;3.45;;;0.88;;
43809;SDS011;29440;48.208;11.162;2024-03-25T00:17:38;3.05;;;0.70;;
43809;SDS011;29440;48.208;11.162;2024-03-25T00:20:03;3.58;;;0.73;;
43809;SDS011;29440;48.208;11.162;2024-03-25T00:22:31;4.65;;;1.10;;
43809;SDS011;29440;48.208;11.162;2024-03-25T00:24:56;3.53;;;0.95;;
43809;SDS011;29440;48.208;11.162;2024-03-25T00:27:22;3.25;;;0.65;;
43809;SDS011;29440;48.208;11.162;2024-03-25T00:29:47;1.30;;;0.90;;
43809;SDS011;29440;48.208;11.162;2024-03-25T00:32:13;3.90;;;0.80;;
43809;SDS011;29440;48.208;11.162;2024-03-25T00:34:40;7.43;;;1.02;;
43809;SDS011;29440;48.208;11.162;2024-03-25T00:37:05;3.55;;;0.60;;
43809;SDS011;29440;48.208;11.162;2024-03-25T00:39:31;2.42;;;0.82;;
43809;SDS011;29440;48.208;11.162;2024-03-25T00:41:59;2.85;;;0.90;;
43809;SDS011;29440;48.208;11.162;2024-03-25T00:44:25;3.55;;;0.80;;
43809;SDS011;29440;48.208;11.162;2024-03-25T00:46:51;1.55;;;0.70;;
43809;SDS011;29440;48.208;11.162;2024-03-25T00:49:17;3.55;;;0.57;;
43809;SDS011;29440;48.208;11.162;2024-03-25T00:51:43;1.48;;;0.60;;
43809;SDS011;29440;48.208;11.162;2024-03-25T00:54:08;4.97;;;0.80;;
43809;SDS011;29440;48.208;11.162;2024-03-25T00:56:34;3.85;;;0.90;;
43809;SDS011;29440;48.208;11.162;2024-03-25T00:59:00;2.28;;;0.70;;
43809;SDS011;29440;48.208;11.162;2024-03-25T01:01:29;1.50;;;0.60;;
43809;SDS011;29440;48.208;11.162;2024-03-25T01:03:56;1.88;;;0.68;;
43809;SDS011;29440;48.208;11.162;2024-03-25T01:06:22;3.53;;;0.80;;
43809;SDS011;29440;48.208;11.162;2024-03-25T01:08:48;8.95;;;0.90;;
43809;SDS011;29440;48.208;11.162;2024-03-25T01:11:14;1.38;;;0.85;;
43809;SDS011;29440;48.208;11.162;2024-03-25T01:13:40;3.97;;;0.80;;
43809;SDS011;29440;48.208;11.162;2024-03-25T01:16:06;3.38;;;0.82;;
43809;SDS011;29440;48.208;11.162;2024-03-25T01:18:32;3.53;;;0.95;;
43809;SDS011;29440;48.208;11.162;2024-03-25T01:20:58;5.18;;;0.60;;
43809;SDS011;29440;48.208;11.162;2024-03-25T01:23:24;2.63;;;0.80;;
43809;SDS011;29440;48.208;11.162;2024-03-25T01:25:50;1.52;;;0.77;;
43809;SDS011;29440;48.208;11.162;2024-03-25T01:28:16;1.15;;;0.60;;
43809;SDS011;29440;48.208;11.162;2024-03-25T01:30:41;2.60;;;0.80;;
43809;SDS011;29440;48.208;11.162;2024-03-25T01:33:07;3.88;;;0.80;;
43809;SDS011;29440;48.208;11.162;2024-03-25T01:35:33;1.77;;;0.77;;
43809;SDS011;29440;48.208;11.162;2024-03-25T01:37:59;3.40;;;1.00;;
43809;SDS011;29440;48.208;11.162;2024-03-25T01:40:24;2.00;;;1.17;;
43809;SDS011;29440;48.208;11.162;2024-03-25T01:43:00;2.83;;;0.80;;
43809;SDS011;29440;48.208;11.162;2024-03-25T01:45:33;3.75;;;0.90;;
43809;SDS011;29440;48.208;11.162;2024-03-25T01:48:06;3.42;;;1.10;;
43809;SDS011;29440;48.208;11.162;2024-03-25T01:50:38;4.15;;;1.00;;
43809;SDS011;29440;48.208;11.162;2024-03-25T01:53:07;2.20;;;1.08;;
43809;SDS011;29440;48.208;11.162;2024-03-25T01:55:33;4.05;;;1.10;;
43809;SDS011;29440;48.208;11.162;2024-03-25T01:57:59;2.90;;;1.05;;
43809;SDS011;29440;48.208;11.162;2024-03-25T02:00:26;3.10;;;1.00;;
43809;SDS011;29440;48.208;11.162;2024-03-25T02:02:52;3.08;;;1.20;;
43809;SDS011;29440;48.208;11.162;2024-03-25T02:05:18;3.60;;;1.25;;
43809;SDS011;29440;48.208;11.162;2024-03-25T02:07:44;2.22;;;1.15;;
43809;SDS011;29440;48.208;11.162;2024-03-25T02:10:11;3.35;;;1.10;;
43809;SDS011;29440;48.208;11.162;2024-03-25T02:12:40;2.10;;;1.10;;
43809;SDS011;29440;48.208;11.162;2024-03-25T02:15:10;3.97;;;1.20;;
43809;SDS011;29440;48.208;11.162;2024-03-25T02:17:38;3.47;;;1.27;;
43809;SDS011;29440;48.208;11.162;2024-03-25T02:20:05;4.80;;;1.27;;
43809;SDS011;29440;48.208;11.162;2024-03-25T02:22:33;2.08;;;1.00;;
43809;SDS011;29440;48.208;11.162;2024-03-25T02:25:00;1.63;;;1.20;;
43809;SDS011;29440;48.208;11.162;2024-03-25T02:27:26;3.90;;;1.10;;
43809;SDS011;29440;48.208;11.162;2024-03-25T02:30:06;2.42;;;1.35;;
43809;SDS011;29440;48.208;11.162;2024-03-25T02:32:38;2.47;;;1.42;;
43809;SDS011;29440;48.208;11.162;2024-03-25T02:35:05;3.33;;;1.30;;
43809;SDS011;29440;48.208;11.162;2024-03-25T02:37:33;5.05;;;1.55;;
43809;SDS011;29440;48.208;11.162;2024-03-25T02:39:59;5.75;;;1.25;;
43809;SDS011;29440;48.208;11.162;2024-03-25T02:42:28;2.10;;;1.05;;
43809;SDS011;29440;48.208;11.162;2024-03-25T02:44:54;6.03;;;1.30;;
43809;SDS011;29440;48.208;11.162;2024-03-25T02:47:21;3.20;;;1.27;;
43809;SDS011;29440;48.208;11.162;2024-03-25T02:49:46;3.45;;;1.35;;
43809;SDS011;29440;48.208;11.162;2024-03-25T02:52:12;2.78;;;1.55;;
43809;SDS011;29440;48.208;11.162;2024-03-25T02:54:38;1.77;;;1.17;;
43809;SDS011;29440;48.208;11.162;2024-03-25T02:57:04;1.70;;;0.80;;
43809;SDS011;29440;48.208;11.162;2024-03-25T02:59:30;3.28;;;1.40;;
43809;SDS011;29440;48.208;11.162;2024-03-25T03:01:56;1.60;;;0.85;;
43809;SDS011;29440;48.208;11.162;2024-03-25T03:04:21;2.58;;;1.10;;
43809;SDS011;29440;48.208;11.162;2024-03-25T03:06:47;3.20;;;2.05;;
43809;SDS011;29440;48.208;11.162;2024-03-25T03:09:13;3.40;;;1.30;;
43809;SDS011;29440;48.208;11.162;2024-03-25T03:11:39;2.65;;;1.02;;
43809;SDS011;29440;48.208;11.162;2024-03-25T03:14:04;1.73;;;0.98;;
43809;SDS011;29440;48.208;11.162;2024-03-25T03:16:30;3.42;;;1.33;;
43809;SDS011;29440;48.208;11.162;2024-03-25T03:18:55;2.28;;;1.00;;
43809;SDS011;29440;48.208;11.162;2024-03-25T03:21:21;1.65;;;1.08;;
43809;SDS011;29440;48.208;11.162;2024-03-25T03:23:46;2.55;;;1.17;;
43809;SDS011;29440;48.208;11.162;2024-03-25T03:26:13;2.50;;;0.98;;
43809;SDS011;29440;48.208;11.162;2024-03-25T03:28:39;3.00;;;1.40;;
43809;SDS011;29440;48.208;11.162;2024-03-25T03:31:05;2.60;;;0.80;;
43809;SDS011;29440;48.208;11.162;2024-03-25T03:33:31;3.80;;;1.52;;
43809;SDS011;29440;48.208;11.162;2024-03-25T03:35:58;2.65;;;1.02;;
43809;SDS011;29440;48.208;11.162;2024-03-25T03:38:24;3.17;;;1.30;;
43809;SDS011;29440;48.208;11.162;2024-03-25T03:40:59;2.53;;;1.15;;
43809;SDS011;29440;48.208;11.162;2024-03-25T03:43:27;5.75;;;1.17;;
43809;SDS011;29440;48.208;11.162;2024-03-25T03:45:52;3.67;;;1.02;;
43809;SDS011;29440;48.208;11.162;2024-03-25T03:48:18;3.75;;;0.98;;
43809;SDS011;29440;48.208;11.162;2024-03-25T03:50:45;2.35;;;1.27;;
43809;SDS011;29440;48.208;11.162;2024-03-25T03:53:10;5.55;;;1.20;;
43809;SDS011;29440;48.208;11.162;2024-03-25T03:55:36;6.20;;;1.42;;
43809;SDS011;29440;48.208;11.162;2024-03-25T03:58:03;2.78;;;1.05;;
43809;SDS011;29440;48.208;11.162;2024-03-25T04:00:29;2.55;;;0.98;;
43809;SDS011;29440;48.208;11.162;2024-03-25T04:02:54;2.60;;;1.10;;
43809;SDS011;29440;48.208;11.162;2024-03-25T04:05:20;3.00;;;1.15;;
43809;SDS011;29440;48.208;11.162;2024-03-25T04:07:46;2.60;;;1.20;;
43809;SDS011;29440;48.208;11.162;2024-03-25T04:10:12;4.32;;;1.40;;
43809;SDS011;29440;48.208;11.162;2024-03-25T04:12:39;3.05;;;1.55;;
43809;SDS011;29440;48.208;11.162;2024-03-25T04:15:07;7.22;;;1.40;;
43809;SDS011;29440;48.208;11.162;2024-03-25T04:17:33;2.42;;;0.98;;
43809;SDS011;29440;48.208;11.162;2024-03-25T04:19:59;1.60;;;0.95;;
43809;SDS011;29440;48.208;11.162;2024-03-25T04:22:33;3.28;;;1.05;;
43809;SDS011;29440;48.208;11.162;2024-03-25T04:24:58;1.40;;;0.75;;
43809;SDS011;29440;48.208;11.162;2024-03-25T04:27:24;3.65;;;1.30;;
43809;SDS011;29440;48.208;11.162;2024-03-25T04:29:51;4.80;;;1.50;;
43809;SDS011;29440;48.208;11.162;2024-03-25T04:32:17;3.13;;;1.05;;
43809;SDS011;29440;48.208;11.162;2024-03-25T04:34:43;3.67;;;1.45;;
43809;SDS011;29440;48.208;11.162;2024-03-25T04:37:09;3.83;;;1.02;;
43809;SDS011;29440;48.208;11.162;2024-03-25T04:39:34;2.85;;;1.10;;
43809;SDS011;29440;48.208;11.162;2024-03-25T04:42:01;1.83;;;0.90;;
43809;SDS011;29440;48.208;11.162;2024-03-25T04:44:28;3.65;;;1.10;;
43809;SDS011;29440;48.208;11.162;2024-03-25T04:46:54;2.60;;;1.10;;
43809;SDS011;29440;48.208;11.162;2024-03-25T04:49:21;2.20;;;1.20;;
43809;SDS011;29440;48.208;11.162;2024-03-25T04:51:46;3.17;;;1.33;;
43809;SDS011;29440;48.208;11.162;2024-03-25T04:54:13;2.75;;;1.23;;
43809;SDS011;29440;48.208;11.162;2024-03-25T04:56:39;4.97;;;1.52;;
43809;SDS011;29440;48.208;11.162;2024-03-25T04:59:05;2.97;;;1.17;;
43809;SDS011;29440;48.208;11.162;2024-03-25T05:01:31;4.95;;;1.67;;
43809;SDS011;29440;48.208;11.162;2024-03-25T05:03:56;2.83;;;1.20;;
43809;SDS011;29440;48.208;11.162;2024-03-25T05:06:22;3.13;;;1.02;;
43809;SDS011;29440;48.208;11.162;2024-03-25T05:08:48;5.95;;;1.23;;
43809;SDS011;29440;48.208;11.162;2024-03-25T05:11:15;2.28;;;0.95;;
43809;SDS011;29440;48.208;11.162;2024-03-25T05:13:41;2.85;;;1.23;;
43809;SDS011;29440;48.208;11.162;2024-03-25T05:16:06;4.15;;;1.50;;
43809;SDS011;29440;48.208;11.162;2024-03-25T05:18:32;4.20;;;1.38;;
43809;SDS011;29440;48.208;11.162;2024-03-25T05:20:58;5.57;;;1.50;;
43809;SDS011;29440;48.208;11.162;2024-03-25T05:23:23;4.03;;;1.60;;
43809;SDS011;29440;48.208;11.162;2024-03-25T05:25:49;4.18;;;1.17;;
43809;SDS011;29440;48.208;11.162;2024-03-25T05:28:14;4.70;;;1.40;;
43809;SDS011;29440;48.208;11.162;2024-03-25T05:30:40;3.80;;;1.70;;
43809;SDS011;29440;48.208;11.162;2024-03-25T05:33:05;4.47;;;1.40;;
43809;SDS011;29440;48.208;11.162;2024-03-25T05:35:31;2.90;;;1.15;;
43809;SDS011;29440;48.208;11.162;2024-03-25T05:38:00;4.13;;;1.17;;
43809;SDS011;29440;48.208;11.162;2024-03-25T05:40:26;5.82;;;1.60;;
43809;SDS011;29440;48.208;11.162;2024-03-25T05:42:51;3.05;;;1.23;;
43809;SDS011;29440;48.208;11.162;2024-03-25T05:45:17;4.32;;;1.33;;
43809;SDS011;29440;48.208;11.162;2024-03-25T05:47:43;1.80;;;0.95;;
43809;SDS011;29440;48.208;11.162;2024-03-25T05:50:08;4.20;;;1.30;;
43809;SDS011;29440;48.208;11.162;2024-03-25T05:52:35;2.20;;;1.27;;
43809;SDS011;29440;48.208;11.162;2024-03-25T05:55:01;4.05;;;1.30;;
43809;SDS011;29440;48.208;11.162;2024-03-25T05:57:27;3.30;;;1.10;;
43809;SDS011;29440;48.208;11.162;2024-03-25T05:59:53;2.63;;;1.10;;
43809;SDS011;29440;48.208;11.162;2024-03-25T06:02:18;3.15;;;0.85;;
43809;SDS011;29440;48.208;11.162;2024-03-25T06:04:45;1.83;;;1.00;;
43809;SDS011;29440;48.208;11.162;2024-03-25T06:07:10;4.28;;;1.02;;
43809;SDS011;29440;48.208;11.162;2024-03-25T06:09:36;2.15;;;1.00;;
43809;SDS011;29440;48.208;11.162;2024-03-25T06:12:02;3.40;;;1.00;;
43809;SDS011;29440;48.208;11.162;2024-03-25T06:14:27;2.97;;;0.90;;
43809;SDS011;29440;48.208;11.162;2024-03-25T06:16:53;2.03;;;0.77;;
43809;SDS011;29440;48.208;11.162;2024-03-25T06:19:19;8.82;;;1.45;;
43809;SDS011;29440;48.208;11.162;2024-03-25T06:21:44;4.32;;;0.80;;
43809;SDS011;29440;48.208;11.162;2024-03-25T06:24:10;4.20;;;1.08;;
43809;SDS011;29440;48.208;11.162;2024-03-25T06:26:36;2.80;;;0.93;;
43809;SDS011;29440;48.208;11.162;2024-03-25T06:29:02;1.88;;;0.82;;
43809;SDS011;29440;48.208;11.162;2024-03-25T06:31:29;3.28;;;0.88;;
43809;SDS011;29440;48.208;11.162;2024-03-25T06:34:14;5.07;;;1.00;;
43809;SDS011;29440;48.208;11.162;2024-03-25T06:36:40;1.98;;;0.80;;
43809;SDS011;29440;48.208;11.162;2024-03-25T06:39:06;2.15;;;0.85;;
43809;SDS011;29440;48.208;11.162;2024-03-25T06:41:32;2.53;;;0.80;;
43809;SDS011;29440;48.208;11.162;2024-03-25T06:43:57;2.08;;;0.88;;
43809;SDS011;29440;48.208;11.162;2024-03-25T06:46:23;2.35;;;0.55;;
43809;SDS011;29440;48.208;11.162;2024-03-25T06:48:49;3.35;;;0.77;;
43809;SDS011;29440;48.208;11.162;2024-03-25T06:51:15;2.63;;;0.55;;
43809;SDS011;29440;48.208;11.162;2024-03-25T06:53:40;3.40;;;1.13;;
43809;SDS011;29440;48.208;11.162;2024-03-25T06:56:06;3.00;;;0.80;;
43809;SDS011;29440;48.208;11.162;2024-03-25T06:58:32;2.63;;;0.70;;
43809;SDS011;29440;48.208;11.162;2024-03-25T07:01:03;3.22;;;1.13;;
43809;SDS011;29440;48.208;11.162;2024-03-25T07:03:30;3.70;;;1.10;;
43809;SDS011;29440;48.208;11.162;2024-03-25T07:05:56;2.22;;;0.70;;
43809;SDS011;29440;48.208;11.162;2024-03-25T07:08:22;2.13;;;0.70;;
43809;SDS011;29440;48.208;11.162;2024-03-25T07:10:48;2.15;;;0.70;;
43809;SDS011;29440;48.208;11.162;2024-03-25T07:13:13;1.63;;;0.57;;
43809;SDS011;29440;48.208;11.162;2024-03-25T07:15:39;3.58;;;1.00;;
43809;SDS011;29440;48.208;11.162;2024-03-25T07:18:05;1.88;;;0.60;;
43809;SDS011;29440;48.208;11.162;2024-03-25T07:20:31;1.88;;;0.70;;
43809;SDS011;29440;48.208;11.162;2024-03-25T07:22:57;1.83;;;0.60;;
43809;SDS011;29440;48.208;11.162;2024-03-25T07:25:23;2.38;;;0.70;;
43809;SDS011;29440;48.208;11.162;2024-03-25T07:27:57;3.42;;;0.85;;
43809;SDS011;29440;48.208;11.162;2024-03-25T07:30:23;4.47;;;1.20;;
43809;SDS011;29440;48.208;11.162;2024-03-25T07:32:52;3.50;;;0.75;;
43809;SDS011;29440;48.208;11.162;2024-03-25T07:35:18;2.78;;;0.80;;
43809;SDS011;29440;48.208;11.162;2024-03-25T07:37:44;4.13;;;0.70;;
43809;SDS011;29440;48.208;11.162;2024-03-25T07:40:10;2.83;;;0.90;;
43809;SDS011;29440;48.208;11.162;2024-03-25T07:42:36;4.93;;;0.90;;
43809;SDS011;29440;48.208;11.162;2024-03-25T07:45:02;4.18;;;1.00;;
43809;SDS011;29440;48.208;11.162;2024-03-25T07:47:30;2.53;;;0.95;;
43809;SDS011;29440;48.208;11.162;2024-03-25T07:49:55;4.68;;;0.70;;
43809;SDS011;29440;48.208;11.162;2024-03-25T07:52:21;2.03;;;0.57;;
43809;SDS011;29440;48.208;11.162;2024-03-25T07:54:46;3.45;;;0.90;;
43809;SDS011;29440;48.208;11.162;2024-03-25T07:57:12;1.55;;;0.60;;
43809;SDS011;29440;48.208;11.162;2024-03-25T07:59:38;3.15;;;1.10;;
43809;SDS011;29440;48.208;11.162;2024-03-25T08:02:03;2.30;;;0.70;;
43809;SDS011;29440;48.208;11.162;2024-03-25T08:04:29;2.22;;;0.73;;
43809;SDS011;29440;48.208;11.162;2024-03-25T08:06:54;5.28;;;1.27;;
43809;SDS011;29440;48.208;11.162;2024-03-25T08:09:20;2.17;;;0.75;;
43809;SDS011;29440;48.208;11.162;2024-03-25T08:11:46;1.95;;;0.80;;
43809;SDS011;29440;48.208;11.162;2024-03-25T08:14:11;3.08;;;0.90;;
43809;SDS011;29440;48.208;11.162;2024-03-25T08:16:37;2.88;;;0.65;;
43809;SDS011;29440;48.208;11.162;2024-03-25T08:19:03;2.17;;;0.80;;
43809;SDS011;29440;48.208;11.162;2024-03-25T08:21:28;3.70;;;1.23;;
43809;SDS011;29440;48.208;11.162;2024-03-25T08:23:54;4.22;;;1.10;;
43809;SDS011;29440;48.208;11.162;2024-03-25T08:26:20;2.88;;;1.00;;
43809;SDS011;29440;48.208;11.162;2024-03-25T08:28:45;6.18;;;1.20;;
43809;SDS011;29440;48.208;11.162;2024-03-25T08:31:11;2.13;;;0.70;;
43809;SDS011;29440;48.208;11.162;2024-03-25T08:33:36;3.65;;;1.38;;
43809;SDS011;29440;48.208;11.162;2024-03-25T08:36:02;3.85;;;1.02;;
43809;SDS011;29440;48.208;11.162;2024-03-25T08:38:28;2.83;;;0.98;;
43809;SDS011;29440;48.208;11.162;2024-03-25T08:40:54;2.10;;;0.70;;
43809;SDS011;29440;48.208;11.162;2024-03-25T08:43:19;3.67;;;1.00;;
43809;SDS011;29440;48.208;11.162;2024-03-25T08:45:45;2.85;;;0.90;;
43809;SDS011;29440;48.208;11.162;2024-03-25T08:48:11;4.97;;;1.05;;
43809;SDS011;29440;48.208;11.162;2024-03-25T08:50:37;3.30;;;1.27;;
43809;SDS011;29440;48.208;11.162;2024-03-25T08:53:03;2.65;;;1.30;;
43809;SDS011;29440;48.208;11.162;2024-03-25T08:55:29;3.38;;;1.00;;
43809;SDS011;29440;48.208;11.162;2024-03-25T08:57:54;3.47;;;1.02;;
43809;SDS011;29440;48.208;11.162;2024-03-25T09:00:20;1.95;;;1.02;;
43809;SDS011;29440;48.208;11.162;2024-03-25T09:02:47;3.03;;;0.90;;
43809;SDS011;29440;48.208;11.162;2024-03-25T09:05:13;3.85;;;1.40;;
43809;SDS011;29440;48.208;11.162;2024-03-25T09:07:43;3.78;;;1.15;;
43809;SDS011;29440;48.208;11.162;2024-03-25T09:10:09;4.03;;;0.90;;
43809;SDS011;29440;48.208;11.162;2024-03-25T09:12:53;8.15;;;1.35;;
43809;SDS011;29440;48.208;11.162;2024-03-25T09:15:19;2.67;;;1.08;;
43809;SDS011;29440;48.208;11.162;2024-03-25T09:17:44;2.47;;;0.90;;
43809;SDS011;29440;48.208;11.162;2024-03-25T09:20:10;2.63;;;1.00;;
43809;SDS011;29440;48.208;11.162;2024-03-25T09:22:44;3.13;;;0.90;;
43809;SDS011;29440;48.208;11.162;2024-03-25T09:25:10;4.45;;;0.88;;
43809;SDS011;29440;48.208;11.162;2024-03-25T09:27:36;2.08;;;0.63;;
43809;SDS011;29440;48.208;11.162;2024-03-25T09:30:02;4.13;;;0.85;;
43809;SDS011;29440;48.208;11.162;2024-03-25T09:32:31;1.70;;;0.80;;
43809;SDS011;29440;48.208;11.162;2024-03-25T09:34:57;1.75;;;0.70;;
43809;SDS011;29440;48.208;11.162;2024-03-25T09:37:22;1.63;;;0.77;;
43809;SDS011;29440;48.208;11.162;2024-03-25T09:39:48;2.25;;;0.90;;
43809;SDS011;29440;48.208;11.162;2024-03-25T09:42:19;5.72;;;0.73;;
43809;SDS011;29440;48.208;11.162;2024-03-25T09:45:05;2.97;;;0.70;;
43809;SDS011;29440;48.208;11.162;2024-03-25T09:47:33;2.42;;;0.80;;
43809;SDS011;29440;48.208;11.162;2024-03-25T09:49:59;2.03;;;0.77;;
43809;SDS011;29440;48.208;11.162;2024-03-25T09:52:27;2.50;;;0.60;;
43809;SDS011;29440;48.208;11.162;2024-03-25T09:54:52;1.38;;;0.50;;
43809;SDS011;29440;48.208;11.162;2024-03-25T09:57:18;3.33;;;0.75;;
43809;SDS011;29440;48.208;11.162;2024-03-25T09:59:44;2.70;;;0.88;;
43809;SDS011;29440;48.208;11.162;2024-03-25T10:02:11;2.20;;;0.60;;
43809;SDS011;29440;48.208;11.162;2024-03-25T10:04:44;2.10;;;0.77;;
43809;SDS011;29440;48.208;11.162;2024-03-25T10:09:45;1.58;;;0.68;;
43809;SDS011;29440;48.208;11.162;2024-03-25T10:12:12;0.85;;;0.60;;
43809;SDS011;29440;48.208;11.162;2024-03-25T10:14:39;2.03;;;0.60;;
43809;SDS011;29440;48.208;11.162;2024-03-25T10:17:05;1.70;;;0.50;;
43809;SDS011;29440;48.208;11.162;2024-03-25T10:19:31;1.13;;;0.60;;
43809;SDS011;29440;48.208;11.162;2024-03-25T10:22:05;3.17;;;0.88;;
43809;SDS011;29440;48.208;11.162;2024-03-25T10:24:41;1.80;;;0.60;;
43809;SDS011;29440;48.208;11.162;2024-03-25T10:27:26;3.00;;;0.70;;
43809;SDS011;29440;48.208;11.162;2024-03-25T10:29:52;1.60;;;0.80;;
43809;SDS011;29440;48.208;11.162;2024-03-25T10:32:20;1.85;;;0.60;;
43809;SDS011;29440;48.208;11.162;2024-03-25T10:34:46;2.88;;;0.68;;
43809;SDS011;29440;48.208;11.162;2024-03-25T10:37:12;2.20;;;0.60;;
43809;SDS011;29440;48.208;11.162;2024-03-25T10:39:49;1.77;;;0.80;;
43809;SDS011;29440;48.208;11.162;2024-03-25T10:42:19;1.83;;;0.75;;
43809;SDS011;29440;48.208;11.162;2024-03-25T10:44:49;2.40;;;0.50;;
43809;SDS011;29440;48.208;11.162;2024-03-25T10:47:19;3.17;;;0.98;;
43809;SDS011;29440;48.208;11.162;2024-03-25T10:49:48;1.73;;;0.57;;
43809;SDS011;29440;48.208;11.162;2024-03-25T10:52:15;3.28;;;0.90;;
43809;SDS011;29440;48.208;11.162;2024-03-25T10:54:42;3.10;;;0.50;;
43809;SDS011;29440;48.208;11.162;2024-03-25T10:57:11;1.75;;;0.63;;
43809;SDS011;29440;48.208;11.162;2024-03-25T10:59:38;2.70;;;0.60;;
43809;SDS011;29440;48.208;11.162;2024-03-25T11:02:06;1.95;;;0.60;;
43809;SDS011;29440;48.208;11.162;2024-03-25T11:04:35;4.07;;;0.50;;
43809;SDS011;29440;48.208;11.162;2024-03-25T11:07:14;1.40;;;0.60;;
43809;SDS011;29440;48.208;11.162;2024-03-25T11:09:40;2.40;;;0.60;;
43809;SDS011;29440;48.208;11.162;2024-03-25T11:12:07;2.88;;;0.60;;
43809;SDS011;29440;48.208;11.162;2024-03-25T11:14:35;1.70;;;0.60;;
43809;SDS011;29440;48.208;11.162;2024-03-25T11:17:01;3.45;;;0.80;;
43809;SDS011;29440;48.208;11.162;2024-03-25T11:19:27;4.13;;;0.80;;
43809;SDS011;29440;48.208;11.162;2024-03-25T11:21:54;1.85;;;0.80;;
43809;SDS011;29440;48.208;11.162;2024-03-25T11:24:31;3.63;;;0.60;;
43809;SDS011;29440;48.208;11.162;2024-03-25T11:26:57;0.88;;;0.60;;
43809;SDS011;29440;48.208;11.162;2024-03-25T11:29:25;0.73;;;0.50;;
43809;SDS011;29440;48.208;11.162;2024-03-25T11:31:51;1.45;;;0.60;;
43809;SDS011;29440;48.208;11.162;2024-03-25T11:34:18;0.93;;;0.43;;
43809;SDS011;29440;48.208;11.162;2024-03-25T11:36:44;1.95;;;0.60;;
43809;SDS011;29440;48.208;11.162;2024-03-25T11:39:11;2.95;;;0.60;;
43809;SDS011;29440;48.208;11.162;2024-03-25T11:41:40;2.40;;;0.70;;
43809;SDS011;29440;48.208;11.162;2024-03-25T11:44:10;1.08;;;0.40;;
43809;SDS011;29440;48.208;11.162;2024-03-25T11:46:38;1.52;;;0.73;;
43809;SDS011;29440;48.208;11.162;2024-03-25T11:49:05;1.52;;;0.50;;
43809;SDS011;29440;48.208;11.162;2024-03-25T11:51:35;1.63;;;0.47;;
43809;SDS011;29440;48.208;11.162;2024-03-25T11:54:04;0.90;;;0.50;;
43809;SDS011;29440;48.208;11.162;2024-03-25T11:56:32;1.83;;;0.52;;
43809;SDS011;29440;48.208;11.162;2024-03-25T11:59:01;2.40;;;0.50;;
43809;SDS011;29440;48.208;11.162;2024-03-25T12:01:30;1.45;;;0.40;;
43809;SDS011;29440;48.208;11.162;2024-03-25T12:03:56;2.85;;;0.50;;
43809;SDS011;29440;48.208;11.162;2024-03-25T12:06:22;3.67;;;0.80;;
43809;SDS011;29440;48.208;11.162;2024-03-25T12:08:48;2.28;;;0.70;;
43809;SDS011;29440;48.208;11.162;2024-03-25T12:11:32;3.85;;;0.60;;
43809;SDS011;29440;48.208;11.162;2024-03-25T12:13:58;1.50;;;0.57;;
43809;SDS011;29440;48.208;11.162;2024-03-25T12:16:25;1.63;;;0.60;;
43809;SDS011;29440;48.208;11.162;2024-03-25T12:18:51;3.00;;;0.63;;
43809;SDS011;29440;48.208;11.162;2024-03-25T12:21:18;1.33;;;0.47;;
43809;SDS011;29440;48.208;11.162;2024-03-25T12:23:45;2.83;;;0.70;;
43809;SDS011;29440;48.208;11.162;2024-03-25T12:26:12;2.05;;;0.50;;
43809;SDS011;29440;48.208;11.162;2024-03-25T12:28:39;1.00;;;0.50;;
43809;SDS011;29440;48.208;11.162;2024-03-25T12:31:07;2.15;;;0.70;;
43809;SDS011;29440;48.208;11.162;2024-03-25T12:33:42;3.53;;;0.70;;
43809;SDS011;29440;48.208;11.162;2024-03-25T12:36:09;3.53;;;0.50;;
43809;SDS011;29440;48.208;11.162;2024-03-25T12:38:36;1.90;;;0.50;;
43809;SDS011;29440;48.208;11.162;2024-03-25T12:43:35;3.10;;;0.70;;
43809;SDS011;29440;48.208;11.162;2024-03-25T12:46:06;2.47;;;0.70;;
43809;SDS011;29440;48.208;11.162;2024-03-25T12:48:33;1.13;;;0.52;;
43809;SDS011;29440;48.208;11.162;2024-03-25T12:50:59;2.85;;;0.60;;
43809;SDS011;29440;48.208;11.162;2024-03-25T12:53:25;1.60;;;0.60;;
43809;SDS011;29440;48.208;11.162;2024-03-25T12:55:52;2.42;;;0.70;;
43809;SDS011;29440;48.208;11.162;2024-03-25T12:58:17;0.90;;;0.50;;
43809;SDS011;29440;48.208;11.162;2024-03-25T13:00:43;2.25;;;0.52;;
43809;SDS011;29440;48.208;11.162;2024-03-25T13:03:08;1.42;;;0.50;;
43809;SDS011;29440;48.208;11.162;2024-03-25T13:05:35;1.20;;;0.63;;
43809;SDS011;29440;48.208;11.162;2024-03-25T13:08:01;2.22;;;0.60;;
43809;SDS011;29440;48.208;11.162;2024-03-25T13:10:27;0.50;;;0.32;;
43809;SDS011;29440;48.208;11.162;2024-03-25T13:12:54;1.33;;;0.40;;
43809;SDS011;29440;48.208;11.162;2024-03-25T13:15:20;0.80;;;0.40;;
43809;SDS011;29440;48.208;11.162;2024-03-25T13:17:45;2.88;;;1.00;;
43809;SDS011;29440;48.208;11.162;2024-03-25T13:20:11;1.88;;;0.82;;
43809;SDS011;29440;48.208;11.162;2024-03-25T13:22:37;2.33;;;0.60;;
43809;SDS011;29440;48.208;11.162;2024-03-25T13:25:03;3.30;;;0.73;;
43809;SDS011;29440;48.208;11.162;2024-03-25T13:27:30;1.85;;;0.65;;
43809;SDS011;29440;48.208;11.162;2024-03-25T13:29:55;1.45;;;0.50;;
43809;SDS011;29440;48.208;11.162;2024-03-25T13:32:21;2.58;;;0.60;;
43809;SDS011;29440;48.208;11.162;2024-03-25T13:34:48;1.67;;;0.57;;
43809;SDS011;29440;48.208;11.162;2024-03-25T13:37:13;2.67;;;0.50;;
43809;SDS011;29440;48.208;11.162;2024-03-25T13:39:39;2.80;;;0.63;;
43809;SDS011;29440;48.208;11.162;2024-03-25T13:42:04;2.58;;;0.70;;
43809;SDS011;29440;48.208;11.162;2024-03-25T13:44:35;2.60;;;0.60;;
43809;SDS011;29440;48.208;11.162;2024-03-25T13:47:01;2.97;;;0.60;;
43809;SDS011;29440;48.208;11.162;2024-03-25T13:49:26;3.35;;;0.60;;
43809;SDS011;29440;48.208;11.162;2024-03-25T13:51:57;2.50;;;0.70;;
43809;SDS011;29440;48.208;11.162;2024-03-25T13:54:23;2.30;;;0.73;;
43809;SDS011;29440;48.208;11.162;2024-03-25T13:56:52;1.75;;;0.50;;
43809;SDS011;29440;48.208;11.162;2024-03-25T13:59:17;3.50;;;0.70;;
43809;SDS011;29440;48.208;11.162;2024-03-25T14:01:43;2.38;;;0.52;;
43809;SDS011;29440;48.208;11.162;2024-03-25T14:04:09;1.00;;;0.50;;
43809;SDS011;29440;48.208;11.162;2024-03-25T14:06:35;1.67;;;0.60;;
43809;SDS011;29440;48.208;11.162;2024-03-25T14:09:01;0.93;;;0.50;;
43809;SDS011;29440;48.208;11.162;2024-03-25T14:11:30;1.77;;;0.60;;
43809;SDS011;29440;48.208;11.162;2024-03-25T14:13:56;0.93;;;0.55;;
43809;SDS011;29440;48.208;11.162;2024-03-25T14:16:22;2.70;;;0.63;;
43809;SDS011;29440;48.208;11.162;2024-03-25T14:18:47;2.13;;;0.60;;
43809;SDS011;29440;48.208;11.162;2024-03-25T14:21:13;1.17;;;0.45;;
43809;SDS011;29440;48.208;11.162;2024-03-25T14:23:39;1.38;;;0.50;;
43809;SDS011;29440;48.208;11.162;2024-03-25T14:26:08;1.73;;;0.60;;
43809;SDS011;29440;48.208;11.162;2024-03-25T14:28:34;2.08;;;0.60;;
43809;SDS011;29440;48.208;11.162;2024-03-25T14:31:00;5.50;;;0.60;;
43809;SDS011;29440;48.208;11.162;2024-03-25T14:33:26;2.83;;;0.63;;
43809;SDS011;29440;48.208;11.162;2024-03-25T14:35:51;1.20;;;0.55;;